createdAt,value
2022-08-21T00:00:49.003Z,91.44
2022-08-21T00:03:51.930Z,90.62
2022-08-21T00:06:54.510Z,92.68
2022-08-21T00:09:57.659Z,93.95
2022-08-21T00:13:02.130Z,91.50
2022-08-21T00:16:05.222Z,92.02
2022-08-21T00:19:08.377Z,93.60
2022-08-21T00:22:11.984Z,93.55
2022-08-21T00:25:15.577Z,92.66
2022-08-21T00:28:19.025Z,93.69
2022-08-21T00:31:21.590Z,92.30
2022-08-21T00:34:24.452Z,92.15
2022-08-21T00:37:27.886Z,93.44
2022-08-21T00:40:57.159Z,92.43
2022-08-21T00:44:02.322Z,92.21
2022-08-21T00:47:05.838Z,93.24
2022-08-21T00:50:17.449Z,92.32
2022-08-21T00:53:26.331Z,93.80
2022-08-21T00:56:29.894Z,95.77
2022-08-21T00:59:37.879Z,94.31
2022-08-21T01:02:41.147Z,94.41
2022-08-21T01:05:45.091Z,94.91
2022-08-21T01:08:48.285Z,94.40
2022-08-21T01:11:51.743Z,94.44
2022-08-21T01:14:54.739Z,93.81
2022-08-21T01:17:58.566Z,94.05
2022-08-21T01:21:15.373Z,92.80
2022-08-21T01:24:19.271Z,94.80
2022-08-21T01:27:22.370Z,93.06
2022-08-21T01:30:27.638Z,94.07
2022-08-21T01:33:30.863Z,94.37
2022-08-21T01:36:36.167Z,93.35
2022-08-21T01:39:39.710Z,94.04
2022-08-21T01:42:43.864Z,93.41
2022-08-21T01:45:46.518Z,94.40
2022-08-21T01:48:49.786Z,95.94
2022-08-21T01:51:53.032Z,93.50
2022-08-21T01:54:56.195Z,93.80
2022-08-21T01:58:00.313Z,94.15
2022-08-21T02:01:06.669Z,93.45
2022-08-21T02:04:10.881Z,94.73
2022-08-21T02:07:13.578Z,95.80
2022-08-21T02:10:25.313Z,96.78
2022-08-21T02:13:29.411Z,95.12
2022-08-21T02:16:32.477Z,95.43
2022-08-21T02:19:40.248Z,97.77
2022-08-21T02:22:43.764Z,95.03
2022-08-21T02:25:46.786Z,93.48
2022-08-21T02:28:50.571Z,96.12
2022-08-21T02:31:54.158Z,98.02
2022-08-21T02:34:57.068Z,96.30
2022-08-21T02:38:04.506Z,98.09
2022-08-21T02:41:13.582Z,97.42
2022-08-21T02:44:17.827Z,95.71
2022-08-21T02:47:20.821Z,97.47
2022-08-21T02:50:30.765Z,96.77
2022-08-21T02:53:35.372Z,98.02
2022-08-21T02:56:38.235Z,96.75
2022-08-21T02:59:41.790Z,96.96
2022-08-21T03:02:46.871Z,97.66
2022-08-21T03:05:49.913Z,98.35
2022-08-21T03:08:54.068Z,99.22
2022-08-21T03:11:57.174Z,99.21
2022-08-21T03:15:01.447Z,98.99
2022-08-21T03:18:12.294Z,98.36
2022-08-21T03:21:15.154Z,99.82
2022-08-21T03:24:18.821Z,99.27
2022-08-21T03:27:27.810Z,98.68
2022-08-21T03:30:33.255Z,97.81
2022-08-21T03:33:35.869Z,96.33
2022-08-21T03:36:38.768Z,98.69
2022-08-21T03:39:42.855Z,98.30
2022-08-21T03:42:48.038Z,100.00
2022-08-21T03:45:50.943Z,95.92
2022-08-21T03:48:56.632Z,98.93
2022-08-21T03:51:59.776Z,98.03
2022-08-21T03:55:06.733Z,96.41
2022-08-21T03:58:16.127Z,95.84
2022-08-21T04:01:20.086Z,94.71
2022-08-21T04:04:23.117Z,96.19
2022-08-21T04:07:26.121Z,95.87
2022-08-21T04:10:31.638Z,95.94
2022-08-21T04:13:35.174Z,98.83
2022-08-21T04:16:47.488Z,94.87
2022-08-21T04:19:53.667Z,96.69
2022-08-21T04:22:57.667Z,96.76
2022-08-21T04:26:00.470Z,99.53
2022-08-21T04:29:06.100Z,97.68
2022-08-21T04:32:08.801Z,97.87
2022-08-21T04:35:14.295Z,95.87
2022-08-21T04:38:18.421Z,95.65
2022-08-21T04:41:28.320Z,95.12
2022-08-21T04:44:32.077Z,94.64
2022-08-21T04:47:41.943Z,95.50
2022-08-21T04:51:03.420Z,93.16
2022-08-21T04:54:15.720Z,89.92
2022-08-21T04:57:19.959Z,91.32
2022-08-21T05:00:25.725Z,91.10
2022-08-21T05:03:29.420Z,91.96
2022-08-21T05:06:38.087Z,91.47
2022-08-21T05:09:40.846Z,91.19
2022-08-21T05:12:44.427Z,91.02
2022-08-21T05:15:47.558Z,89.27
2022-08-21T05:18:51.389Z,90.97
2022-08-21T05:21:54.386Z,91.04
2022-08-21T05:24:58.566Z,90.81
2022-08-21T05:28:01.213Z,92.04
2022-08-21T05:31:04.717Z,92.28
2022-08-21T05:34:07.380Z,90.37
2022-08-21T05:37:12.889Z,88.08
2022-08-21T05:40:22.577Z,88.43
2022-08-21T05:43:26.000Z,87.86
2022-08-21T05:46:28.683Z,88.02
2022-08-21T05:49:31.958Z,88.18
2022-08-21T05:52:35.007Z,86.68
2022-08-21T05:55:44.165Z,88.51
2022-08-21T05:58:48.141Z,89.03
2022-08-21T06:01:53.821Z,85.93
2022-08-21T06:04:58.068Z,86.68
2022-08-21T06:08:00.930Z,85.43
2022-08-21T06:11:07.106Z,86.57
2022-08-21T06:14:17.464Z,87.36
2022-08-21T06:17:21.226Z,88.24
2022-08-21T06:20:24.869Z,88.70
2022-08-21T06:23:32.971Z,86.33
2022-08-21T06:26:36.190Z,85.73
2022-08-21T06:29:44.317Z,85.69
2022-08-21T06:32:56.916Z,83.84
2022-08-21T06:36:06.194Z,82.63
2022-08-21T06:39:16.469Z,82.00
2022-08-21T06:42:33.149Z,83.03
2022-08-21T06:45:43.241Z,81.07
2022-08-21T06:48:50.799Z,81.56
2022-08-21T06:51:54.922Z,80.69
2022-08-21T06:54:57.943Z,79.53
2022-08-21T06:58:01.422Z,80.18
2022-08-21T07:01:07.587Z,78.41
2022-08-21T07:04:14.145Z,77.76
2022-08-21T07:07:19.682Z,78.10
2022-08-21T07:10:22.908Z,76.91
2022-08-21T07:13:26.164Z,72.50
2022-08-21T07:16:28.706Z,70.44
2022-08-21T07:19:32.939Z,73.02
2022-08-21T07:22:37.973Z,73.24
2022-08-21T07:25:41.360Z,73.31
2022-08-21T07:28:44.483Z,74.08
2022-08-21T07:31:47.495Z,73.35
2022-08-21T07:34:50.284Z,72.70
2022-08-21T07:37:53.570Z,73.65
2022-08-21T07:40:59.948Z,72.75
2022-08-21T07:44:03.446Z,73.89
2022-08-21T07:47:06.672Z,72.62
2022-08-21T07:50:12.524Z,71.30
2022-08-21T07:53:15.832Z,71.18
2022-08-21T07:56:19.521Z,70.18
2022-08-21T07:59:22.137Z,68.69
2022-08-21T08:02:27.586Z,67.87
2022-08-21T08:05:32.923Z,67.79
2022-08-21T08:08:35.679Z,66.75
2022-08-21T08:11:44.699Z,64.36
2022-08-21T08:14:47.460Z,61.94
2022-08-21T08:17:50.431Z,60.95
2022-08-21T08:20:53.319Z,61.15
2022-08-21T08:23:56.193Z,64.75
2022-08-21T08:26:58.902Z,65.91
2022-08-21T08:30:02.539Z,64.08
2022-08-21T08:33:05.652Z,65.44
2022-08-21T08:36:18.166Z,65.24
2022-08-21T08:39:26.741Z,65.42
2022-08-21T08:42:36.585Z,65.89
2022-08-21T08:45:42.669Z,65.68
2022-08-21T08:48:53.401Z,65.43
2022-08-21T08:52:02.068Z,65.03
2022-08-21T08:55:22.386Z,66.70
2022-08-21T08:58:38.974Z,62.02
2022-08-21T09:01:43.060Z,62.81
2022-08-21T09:04:49.086Z,60.69
2022-08-21T09:08:24.572Z,58.51
2022-08-21T09:11:37.912Z,56.44
2022-08-21T09:14:51.662Z,53.98
2022-08-21T09:18:26.299Z,54.20
2022-08-21T09:21:33.863Z,54.02
2022-08-21T09:24:47.868Z,53.09
2022-08-21T09:27:56.652Z,55.29
2022-08-21T09:59:56.362Z,55.00
2022-08-21T10:03:17.944Z,53.07
2022-08-21T10:25:24.255Z,58.62
2022-08-21T10:28:29.845Z,58.61
2022-08-21T10:31:53.657Z,58.81
2022-08-21T10:35:11.350Z,58.98
2022-08-21T10:38:46.227Z,60.50
2022-08-21T10:42:01.288Z,60.34
2022-08-21T10:45:21.974Z,60.17
2022-08-21T10:48:51.509Z,60.06
2022-08-21T10:52:09.613Z,61.05
2022-08-21T10:55:48.927Z,59.25
2022-08-21T10:59:19.411Z,62.04
2022-08-21T11:02:32.456Z,60.15
2022-08-21T11:05:47.543Z,59.32
2022-08-21T11:09:00.635Z,60.61
2022-08-21T11:12:30.466Z,61.34
2022-08-21T11:15:40.005Z,62.04
2022-08-21T11:18:50.267Z,62.12
2022-08-21T11:22:01.434Z,62.48
2022-08-21T11:26:11.526Z,63.80
2022-08-21T11:29:59.614Z,66.69
2022-08-21T11:37:36.617Z,68.58
2022-08-21T11:40:45.109Z,67.49
2022-08-21T11:43:50.030Z,67.93
2022-08-21T11:46:55.392Z,66.53
2022-08-21T11:50:34.885Z,65.53
2022-08-21T11:54:03.468Z,68.33
2022-08-21T11:57:55.283Z,69.37
2022-08-21T12:01:08.588Z,66.92
2022-08-21T12:04:18.953Z,65.44
2022-08-21T12:07:41.629Z,66.20
2022-08-21T12:11:01.077Z,66.97
2022-08-21T12:14:16.666Z,67.81
2022-08-21T12:17:26.312Z,66.19
2022-08-21T12:20:58.678Z,66.72
2022-08-21T12:24:20.666Z,66.36
2022-08-21T12:27:41.921Z,65.74
2022-08-21T12:30:46.475Z,64.09
2022-08-21T12:34:00.480Z,64.27
2022-08-21T12:37:08.165Z,65.69
2022-08-21T12:40:22.826Z,66.82
2022-08-21T12:43:34.795Z,65.93
2022-08-21T12:47:03.387Z,65.93
2022-08-21T12:50:27.505Z,65.74
2022-08-21T12:53:41.564Z,64.53
2022-08-21T12:56:57.620Z,68.70
2022-08-21T13:00:03.723Z,68.24
2022-08-21T13:03:07.830Z,67.92
2022-08-21T13:06:18.188Z,67.45
2022-08-21T13:09:28.761Z,68.35
2022-08-21T13:12:33.850Z,69.25
2022-08-21T13:15:40.237Z,70.85
2022-08-21T13:18:59.957Z,70.75
2022-08-21T13:22:33.541Z,70.54
2022-08-21T13:25:37.968Z,72.11
2022-08-21T13:28:48.394Z,76.58
2022-08-21T13:32:02.730Z,80.42
2022-08-21T13:35:21.273Z,82.29
2022-08-21T13:38:31.549Z,80.07
2022-08-21T13:41:39.099Z,81.05
2022-08-21T13:44:48.203Z,83.16
2022-08-21T13:47:53.343Z,82.95
2022-08-21T13:50:57.849Z,84.33
2022-08-21T13:54:02.311Z,87.81
2022-08-21T13:57:17.600Z,85.54
2022-08-21T14:00:27.896Z,85.08
2022-08-21T14:03:37.563Z,84.91
2022-08-21T14:14:36.411Z,88.73
2022-08-21T14:17:49.029Z,91.15
2022-08-21T14:21:04.314Z,90.19
2022-08-21T14:24:40.998Z,93.68
2022-08-21T14:27:54.976Z,96.34
2022-08-21T14:30:59.192Z,95.28
2022-08-21T14:34:19.200Z,89.22
2022-08-21T14:37:24.262Z,86.84
2022-08-21T14:40:28.020Z,85.32
2022-08-21T14:43:32.324Z,86.72
2022-08-21T14:46:36.493Z,84.51
2022-08-21T14:49:52.047Z,88.74
2022-08-21T14:52:56.477Z,100.00
2022-08-21T14:56:08.477Z,100.00
2022-08-21T14:59:15.401Z,100.00
2022-08-21T15:02:18.221Z,100.00
2022-08-21T15:05:24.104Z,100.00
2022-08-21T15:08:35.353Z,100.00
2022-08-21T15:11:43.406Z,100.00
2022-08-21T15:14:50.882Z,100.00
2022-08-21T15:17:54.381Z,100.00
2022-08-21T15:20:57.276Z,100.00
2022-08-21T15:24:00.307Z,100.00
2022-08-21T15:27:05.103Z,100.00
2022-08-21T15:30:09.093Z,100.00
2022-08-21T15:33:15.216Z,100.00
2022-08-21T15:36:18.331Z,100.00
2022-08-21T15:39:21.140Z,100.00
2022-08-21T15:42:28.601Z,100.00
2022-08-21T15:45:31.574Z,100.00
2022-08-21T15:48:35.764Z,100.00
2022-08-21T15:51:43.482Z,100.00
2022-08-21T15:54:48.608Z,100.00
2022-08-21T15:57:57.902Z,100.00
2022-08-21T16:01:02.466Z,100.00
2022-08-21T16:04:06.707Z,100.00
2022-08-21T16:07:09.866Z,100.00
2022-08-21T16:10:13.822Z,100.00
2022-08-21T16:13:34.672Z,100.00
2022-08-21T16:16:38.012Z,100.00
2022-08-21T16:19:43.209Z,100.00
2022-08-21T16:22:46.604Z,100.00
2022-08-21T16:25:49.708Z,100.00
2022-08-21T16:28:58.088Z,100.00
2022-08-21T16:32:02.105Z,100.00
2022-08-21T16:38:49.707Z,100.00
2022-08-21T16:41:53.017Z,100.00
2022-08-21T16:44:57.352Z,100.00
2022-08-21T16:48:37.652Z,100.00
2022-08-21T16:52:07.756Z,100.00
2022-08-21T16:55:11.737Z,100.00
2022-08-21T16:58:20.953Z,100.00
2022-08-21T17:04:57.582Z,100.00
2022-08-21T17:08:02.893Z,100.00
2022-08-21T17:11:50.248Z,99.64
2022-08-21T17:14:53.452Z,100.00
2022-08-21T17:18:01.109Z,100.00
2022-08-21T17:21:06.188Z,100.00
2022-08-21T17:24:15.474Z,100.00
2022-08-21T17:27:26.635Z,100.00
2022-08-21T17:30:32.264Z,100.00
2022-08-21T17:33:53.039Z,100.00
2022-08-21T17:37:19.684Z,100.00
2022-08-21T17:40:48.509Z,100.00
2022-08-21T17:43:55.122Z,100.00
2022-08-21T17:46:59.843Z,100.00
2022-08-21T17:50:02.673Z,100.00
2022-08-21T17:53:28.799Z,100.00
2022-08-21T17:56:34.116Z,100.00
2022-08-21T17:59:37.406Z,100.00
2022-08-21T18:02:42.759Z,100.00
2022-08-21T18:05:47.779Z,100.00
2022-08-21T18:08:54.020Z,100.00
2022-08-21T18:12:00.325Z,100.00
2022-08-21T18:15:07.210Z,100.00
2022-08-21T18:18:10.179Z,100.00
2022-08-21T18:21:12.997Z,100.00
2022-08-21T18:24:16.058Z,100.00
2022-08-21T18:27:19.174Z,100.00
2022-08-21T18:30:25.421Z,100.00
2022-08-21T18:33:58.507Z,100.00
2022-08-21T18:37:22.189Z,100.00
2022-08-21T18:40:55.570Z,100.00
2022-08-21T18:44:23.729Z,100.00
2022-08-21T18:47:52.564Z,100.00
2022-08-21T18:50:55.526Z,100.00
2022-08-21T18:53:58.707Z,100.00
2022-08-21T18:57:09.087Z,100.00
2022-08-21T19:00:24.286Z,100.00
2022-08-21T19:03:27.434Z,100.00
2022-08-21T19:06:30.063Z,100.00
2022-08-21T19:09:33.323Z,100.00
2022-08-21T19:12:39.031Z,100.00
2022-08-21T19:15:46.989Z,100.00
2022-08-21T19:18:50.128Z,100.00
2022-08-21T19:21:53.240Z,100.00
2022-08-21T19:24:56.168Z,100.00
2022-08-21T19:27:59.478Z,100.00
2022-08-21T19:31:12.716Z,100.00
2022-08-21T19:34:26.333Z,100.00
2022-08-21T19:37:29.033Z,100.00
2022-08-21T19:40:35.009Z,100.00
2022-08-21T19:43:51.930Z,100.00
2022-08-21T19:46:57.818Z,100.00
2022-08-21T19:50:03.480Z,100.00
2022-08-21T19:53:20.747Z,100.00
2022-08-21T19:56:27.164Z,100.00
2022-08-21T19:59:31.158Z,100.00
2022-08-21T20:02:33.837Z,100.00
2022-08-21T20:05:39.846Z,100.00
2022-08-21T20:08:43.204Z,100.00
2022-08-21T20:11:52.680Z,100.00
2022-08-21T20:14:56.824Z,100.00
2022-08-21T20:17:59.998Z,100.00
2022-08-21T20:21:06.370Z,100.00
2022-08-21T20:24:14.703Z,100.00
2022-08-21T20:27:24.552Z,100.00
2022-08-21T20:30:28.526Z,100.00
2022-08-21T20:33:31.482Z,100.00
2022-08-21T20:36:36.444Z,100.00
2022-08-21T20:39:39.197Z,100.00
2022-08-21T20:42:49.375Z,100.00
2022-08-21T20:45:52.052Z,100.00
2022-08-21T20:49:01.914Z,100.00
2022-08-21T20:52:06.265Z,100.00
2022-08-21T20:55:32.798Z,100.00
2022-08-21T20:58:41.387Z,100.00
2022-08-21T21:01:47.182Z,100.00
2022-08-21T21:05:14.668Z,100.00
2022-08-21T21:08:25.317Z,100.00
2022-08-21T21:11:39.975Z,100.00
2022-08-21T21:14:48.712Z,100.00
2022-08-21T21:18:01.511Z,100.00
2022-08-21T21:21:20.950Z,100.00
2022-08-21T21:24:52.187Z,100.00
2022-08-21T21:28:06.017Z,100.00
2022-08-21T21:31:18.310Z,100.00
2022-08-21T21:34:28.095Z,100.00
2022-08-21T21:37:46.107Z,100.00
2022-08-21T21:40:53.084Z,100.00
2022-08-21T21:43:58.677Z,100.00
2022-08-21T21:47:15.921Z,100.00
2022-08-21T21:50:47.140Z,100.00
2022-08-21T21:53:56.890Z,100.00
2022-08-21T21:57:21.330Z,100.00
2022-08-21T22:00:28.918Z,100.00
2022-08-21T22:03:49.651Z,100.00
2022-08-21T22:07:11.150Z,100.00
2022-08-21T22:10:43.043Z,100.00
2022-08-21T22:14:04.532Z,100.00
2022-08-21T22:17:46.865Z,100.00
2022-08-21T22:21:05.355Z,100.00
2022-08-21T22:24:27.696Z,100.00
2022-08-21T22:27:37.046Z,100.00
2022-08-21T22:30:40.285Z,100.00
2022-08-21T22:34:19.461Z,100.00
2022-08-21T22:37:34.990Z,100.00
2022-08-21T22:40:37.656Z,100.00
2022-08-21T22:43:59.853Z,100.00
2022-08-21T22:47:06.101Z,100.00
2022-08-21T22:50:27.133Z,100.00
2022-08-21T22:53:33.405Z,100.00
2022-08-21T22:56:46.060Z,100.00
2022-08-21T23:00:01.230Z,100.00
2022-08-21T23:03:04.329Z,100.00
2022-08-21T23:06:43.011Z,100.00
2022-08-21T23:09:50.131Z,100.00
2022-08-21T23:13:19.101Z,100.00
2022-08-21T23:20:18.871Z,100.00
2022-08-21T23:23:27.944Z,100.00
2022-08-21T23:26:46.889Z,100.00
2022-08-21T23:30:26.370Z,100.00
2022-08-21T23:34:00.999Z,100.00
2022-08-21T23:41:34.249Z,100.00
2022-08-21T23:44:57.694Z,100.00
2022-08-21T23:48:10.974Z,100.00
2022-08-21T23:51:55.795Z,100.00
2022-08-21T23:55:20.447Z,100.00
2022-08-21T23:59:02.017Z,100.00
